CheckWX is a tool to help pilots better visualize weather data.  It is not intended as a substitute for an official pre-flight weather briefing.

13:01:04 UTC

KIKT METAR
Nakika
Nakika, Mississippi, USA
Current

26 mins ago

KIKT 181235Z AUTO 00000KT 3SM BR FEW011 SCT030 BKN055 24/22 A2998 RMK A01
Observed
Feb-18 @ 12:35 UTC
Visibility
3 SM
Flight Rules
MVFR
Conditions
Mist
Cloud Levels
  • Few at 1,100' AGL
  • Scattered at 3,000' AGL
  • Broken at 5,500' AGL
Temperature
24°C / 75°F
Dewpoint
22°C / 72°F
Humidity
89%
Altimeter
29.98" Hg
Pressure
1015.22 hPa
Previous

46 mins ago

KIKT 181215Z AUTO VRB04KT 3SM BR SCT014 SCT021 24/22 A2997 RMK A01
Observed
Feb-18 @ 12:15 UTC
Wind
  • Variable at 4 KTS
Visibility
3 SM
Flight Rules
MVFR
Conditions
Mist
Cloud Levels
  • Scattered at 1,400' AGL
  • Scattered at 2,100' AGL
Temperature
24°C / 75°F
Dewpoint
22°C / 72°F
Humidity
89%
Altimeter
29.97" Hg
Pressure
1014.92 hPa
Previous

1 hour ago

KIKT 181155Z AUTO 22007KT 3SM BR FEW014 FEW026 24/22 A2996 RMK A01
Observed
Feb-18 @ 11:55 UTC
Wind
  • 220° at 7 KTS
Visibility
3 SM
Flight Rules
MVFR
Conditions
Mist
Cloud Levels
  • Few at 1,400' AGL
  • Few at 2,600' AGL
Temperature
24°C / 75°F
Dewpoint
22°C / 72°F
Humidity
89%
Altimeter
29.96" Hg
Pressure
1014.52 hPa